sensor_id;sensor_type;location;lat;lon;timestamp;P1;durP1;ratioP1;P2;durP2;ratioP2
35522;SDS011;61478;50.820;4.330;2023-04-20T00:01:46;10.50;;;3.58;;
35522;SDS011;61478;50.820;4.330;2023-04-20T00:04:13;4.82;;;3.42;;
35522;SDS011;61478;50.820;4.330;2023-04-20T00:06:40;5.47;;;3.78;;
35522;SDS011;61478;50.820;4.330;2023-04-20T00:09:08;15.55;;;3.72;;
35522;SDS011;61478;50.820;4.330;2023-04-20T00:11:35;6.55;;;3.50;;
35522;SDS011;61478;50.820;4.330;2023-04-20T00:14:01;7.03;;;3.65;;
35522;SDS011;61478;50.820;4.330;2023-04-20T00:16:27;5.95;;;3.20;;
35522;SDS011;61478;50.820;4.330;2023-04-20T00:18:53;6.80;;;3.65;;
35522;SDS011;61478;50.820;4.330;2023-04-20T00:21:18;7.25;;;3.80;;
35522;SDS011;61478;50.820;4.330;2023-04-20T00:23:51;5.47;;;3.35;;
35522;SDS011;61478;50.820;4.330;2023-04-20T00:26:17;5.60;;;3.60;;
35522;SDS011;61478;50.820;4.330;2023-04-20T00:28:43;8.70;;;3.70;;
35522;SDS011;61478;50.820;4.330;2023-04-20T00:31:09;5.00;;;3.42;;
35522;SDS011;61478;50.820;4.330;2023-04-20T00:33:35;12.77;;;3.50;;
35522;SDS011;61478;50.820;4.330;2023-04-20T00:36:01;6.45;;;3.13;;
35522;SDS011;61478;50.820;4.330;2023-04-20T00:38:27;9.60;;;3.70;;
35522;SDS011;61478;50.820;4.330;2023-04-20T00:40:54;7.45;;;4.10;;
35522;SDS011;61478;50.820;4.330;2023-04-20T00:43:20;15.70;;;3.90;;
35522;SDS011;61478;50.820;4.330;2023-04-20T00:45:46;9.85;;;4.00;;
35522;SDS011;61478;50.820;4.330;2023-04-20T00:48:12;10.48;;;4.07;;
35522;SDS011;61478;50.820;4.330;2023-04-20T00:50:39;10.60;;;3.95;;
35522;SDS011;61478;50.820;4.330;2023-04-20T00:53:05;6.05;;;3.60;;
35522;SDS011;61478;50.820;4.330;2023-04-20T00:55:32;7.47;;;3.20;;
35522;SDS011;61478;50.820;4.330;2023-04-20T00:58:00;11.35;;;3.53;;
35522;SDS011;61478;50.820;4.330;2023-04-20T01:00:26;8.45;;;3.45;;
35522;SDS011;61478;50.820;4.330;2023-04-20T01:02:52;4.85;;;3.20;;
35522;SDS011;61478;50.820;4.330;2023-04-20T01:05:18;6.78;;;3.83;;
35522;SDS011;61478;50.820;4.330;2023-04-20T01:07:45;9.48;;;3.92;;
35522;SDS011;61478;50.820;4.330;2023-04-20T01:10:11;7.80;;;3.63;;
35522;SDS011;61478;50.820;4.330;2023-04-20T01:12:37;9.50;;;3.50;;
35522;SDS011;61478;50.820;4.330;2023-04-20T01:15:04;9.68;;;3.58;;
35522;SDS011;61478;50.820;4.330;2023-04-20T01:17:31;8.18;;;3.72;;
35522;SDS011;61478;50.820;4.330;2023-04-20T01:19:58;6.93;;;3.63;;
35522;SDS011;61478;50.820;4.330;2023-04-20T01:22:24;5.20;;;3.85;;
35522;SDS011;61478;50.820;4.330;2023-04-20T01:24:50;8.35;;;3.60;;
35522;SDS011;61478;50.820;4.330;2023-04-20T01:27:16;8.50;;;3.58;;
35522;SDS011;61478;50.820;4.330;2023-04-20T01:29:43;11.70;;;4.13;;
35522;SDS011;61478;50.820;4.330;2023-04-20T01:32:09;7.95;;;4.05;;
35522;SDS011;61478;50.820;4.330;2023-04-20T01:34:36;7.25;;;3.88;;
35522;SDS011;61478;50.820;4.330;2023-04-20T01:37:03;10.70;;;3.47;;
35522;SDS011;61478;50.820;4.330;2023-04-20T01:39:41;6.47;;;3.60;;
35522;SDS011;61478;50.820;4.330;2023-04-20T01:42:07;9.02;;;4.20;;
35522;SDS011;61478;50.820;4.330;2023-04-20T01:44:33;10.05;;;3.85;;
35522;SDS011;61478;50.820;4.330;2023-04-20T01:46:59;7.47;;;3.67;;
35522;SDS011;61478;50.820;4.330;2023-04-20T01:49:25;13.25;;;3.85;;
35522;SDS011;61478;50.820;4.330;2023-04-20T01:51:51;8.95;;;3.60;;
35522;SDS011;61478;50.820;4.330;2023-04-20T01:54:17;10.18;;;3.92;;
35522;SDS011;61478;50.820;4.330;2023-04-20T01:56:43;9.57;;;3.90;;
35522;SDS011;61478;50.820;4.330;2023-04-20T01:59:09;5.90;;;3.90;;
35522;SDS011;61478;50.820;4.330;2023-04-20T02:01:35;9.40;;;4.38;;
35522;SDS011;61478;50.820;4.330;2023-04-20T02:04:00;8.15;;;3.78;;
35522;SDS011;61478;50.820;4.330;2023-04-20T02:06:26;7.10;;;3.28;;
35522;SDS011;61478;50.820;4.330;2023-04-20T02:08:52;5.95;;;3.65;;
35522;SDS011;61478;50.820;4.330;2023-04-20T02:11:18;8.20;;;3.55;;
35522;SDS011;61478;50.820;4.330;2023-04-20T02:13:46;10.38;;;4.03;;
35522;SDS011;61478;50.820;4.330;2023-04-20T02:16:11;11.68;;;4.10;;
35522;SDS011;61478;50.820;4.330;2023-04-20T02:18:37;8.10;;;3.30;;
35522;SDS011;61478;50.820;4.330;2023-04-20T02:21:05;6.88;;;3.88;;
35522;SDS011;61478;50.820;4.330;2023-04-20T02:23:31;7.53;;;3.70;;
35522;SDS011;61478;50.820;4.330;2023-04-20T02:25:57;5.47;;;3.17;;
35522;SDS011;61478;50.820;4.330;2023-04-20T02:28:22;9.60;;;4.00;;
35522;SDS011;61478;50.820;4.330;2023-04-20T02:30:48;6.57;;;3.67;;
35522;SDS011;61478;50.820;4.330;2023-04-20T02:33:14;7.90;;;3.42;;
35522;SDS011;61478;50.820;4.330;2023-04-20T02:35:40;8.65;;;4.05;;
35522;SDS011;61478;50.820;4.330;2023-04-20T02:38:06;11.60;;;3.58;;
35522;SDS011;61478;50.820;4.330;2023-04-20T02:40:32;7.18;;;3.38;;
35522;SDS011;61478;50.820;4.330;2023-04-20T02:42:58;11.90;;;4.28;;
35522;SDS011;61478;50.820;4.330;2023-04-20T02:45:24;11.35;;;3.60;;
35522;SDS011;61478;50.820;4.330;2023-04-20T02:47:49;5.90;;;3.75;;
35522;SDS011;61478;50.820;4.330;2023-04-20T02:50:15;7.38;;;3.60;;
35522;SDS011;61478;50.820;4.330;2023-04-20T02:52:41;11.90;;;3.95;;
35522;SDS011;61478;50.820;4.330;2023-04-20T02:55:07;9.88;;;3.60;;
35522;SDS011;61478;50.820;4.330;2023-04-20T02:57:33;6.90;;;3.45;;
35522;SDS011;61478;50.820;4.330;2023-04-20T02:59:59;7.80;;;4.13;;
35522;SDS011;61478;50.820;4.330;2023-04-20T03:02:25;13.85;;;3.72;;
35522;SDS011;61478;50.820;4.330;2023-04-20T03:04:51;9.52;;;3.78;;
35522;SDS011;61478;50.820;4.330;2023-04-20T03:07:17;10.40;;;3.30;;
35522;SDS011;61478;50.820;4.330;2023-04-20T03:09:43;8.65;;;3.72;;
35522;SDS011;61478;50.820;4.330;2023-04-20T03:12:09;5.55;;;3.58;;
35522;SDS011;61478;50.820;4.330;2023-04-20T03:14:35;8.13;;;3.38;;
35522;SDS011;61478;50.820;4.330;2023-04-20T03:17:00;7.68;;;3.20;;
35522;SDS011;61478;50.820;4.330;2023-04-20T03:19:26;10.48;;;3.90;;
35522;SDS011;61478;50.820;4.330;2023-04-20T03:21:52;6.63;;;3.45;;
35522;SDS011;61478;50.820;4.330;2023-04-20T03:24:18;8.85;;;3.28;;
35522;SDS011;61478;50.820;4.330;2023-04-20T03:26:44;9.73;;;3.30;;
35522;SDS011;61478;50.820;4.330;2023-04-20T03:29:10;10.73;;;4.50;;
35522;SDS011;61478;50.820;4.330;2023-04-20T03:31:36;9.30;;;3.72;;
35522;SDS011;61478;50.820;4.330;2023-04-20T03:34:02;10.85;;;3.60;;
35522;SDS011;61478;50.820;4.330;2023-04-20T03:36:28;8.95;;;3.80;;
35522;SDS011;61478;50.820;4.330;2023-04-20T03:38:54;7.80;;;3.58;;
35522;SDS011;61478;50.820;4.330;2023-04-20T03:41:20;7.28;;;3.58;;
35522;SDS011;61478;50.820;4.330;2023-04-20T03:43:46;7.20;;;3.35;;
35522;SDS011;61478;50.820;4.330;2023-04-20T03:46:12;33.53;;;6.85;;
35522;SDS011;61478;50.820;4.330;2023-04-20T03:48:38;18.58;;;4.25;;
35522;SDS011;61478;50.820;4.330;2023-04-20T03:51:03;12.75;;;4.00;;
35522;SDS011;61478;50.820;4.330;2023-04-20T03:53:30;9.10;;;3.47;;
35522;SDS011;61478;50.820;4.330;2023-04-20T03:55:56;6.75;;;3.28;;
35522;SDS011;61478;50.820;4.330;2023-04-20T03:58:22;14.13;;;3.72;;
35522;SDS011;61478;50.820;4.330;2023-04-20T04:00:47;11.68;;;4.20;;
35522;SDS011;61478;50.820;4.330;2023-04-20T04:03:13;8.50;;;3.63;;
35522;SDS011;61478;50.820;4.330;2023-04-20T04:05:39;12.63;;;3.70;;
35522;SDS011;61478;50.820;4.330;2023-04-20T04:08:06;10.40;;;3.60;;
35522;SDS011;61478;50.820;4.330;2023-04-20T04:10:31;7.40;;;3.47;;
35522;SDS011;61478;50.820;4.330;2023-04-20T04:12:58;8.48;;;4.10;;
35522;SDS011;61478;50.820;4.330;2023-04-20T04:15:23;8.80;;;4.93;;
35522;SDS011;61478;50.820;4.330;2023-04-20T04:17:49;9.35;;;3.88;;
35522;SDS011;61478;50.820;4.330;2023-04-20T04:20:17;11.52;;;3.90;;
35522;SDS011;61478;50.820;4.330;2023-04-20T04:22:43;14.68;;;4.40;;
35522;SDS011;61478;50.820;4.330;2023-04-20T04:25:09;17.42;;;4.25;;
35522;SDS011;61478;50.820;4.330;2023-04-20T04:27:35;7.32;;;3.50;;
35522;SDS011;61478;50.820;4.330;2023-04-20T04:30:04;12.02;;;3.45;;
35522;SDS011;61478;50.820;4.330;2023-04-20T04:32:30;12.60;;;3.78;;
35522;SDS011;61478;50.820;4.330;2023-04-20T04:34:58;10.73;;;3.65;;
35522;SDS011;61478;50.820;4.330;2023-04-20T04:37:25;13.73;;;3.65;;
35522;SDS011;61478;50.820;4.330;2023-04-20T04:39:52;4.15;;;2.80;;
35522;SDS011;61478;50.820;4.330;2023-04-20T04:42:18;7.35;;;3.50;;
35522;SDS011;61478;50.820;4.330;2023-04-20T04:44:44;8.07;;;3.20;;
35522;SDS011;61478;50.820;4.330;2023-04-20T04:47:09;12.02;;;3.55;;
35522;SDS011;61478;50.820;4.330;2023-04-20T04:49:38;7.82;;;3.00;;
35522;SDS011;61478;50.820;4.330;2023-04-20T04:52:07;10.18;;;3.63;;
35522;SDS011;61478;50.820;4.330;2023-04-20T04:54:33;15.20;;;3.67;;
35522;SDS011;61478;50.820;4.330;2023-04-20T04:56:59;9.23;;;3.88;;
35522;SDS011;61478;50.820;4.330;2023-04-20T04:59:25;20.80;;;4.40;;
35522;SDS011;61478;50.820;4.330;2023-04-20T05:01:51;11.98;;;4.53;;
35522;SDS011;61478;50.820;4.330;2023-04-20T05:04:17;15.00;;;4.60;;
35522;SDS011;61478;50.820;4.330;2023-04-20T05:06:43;16.80;;;4.53;;
35522;SDS011;61478;50.820;4.330;2023-04-20T05:09:09;8.00;;;3.75;;
35522;SDS011;61478;50.820;4.330;2023-04-20T05:11:35;11.32;;;4.10;;
35522;SDS011;61478;50.820;4.330;2023-04-20T05:14:02;14.48;;;4.25;;
35522;SDS011;61478;50.820;4.330;2023-04-20T05:16:27;12.55;;;4.22;;
35522;SDS011;61478;50.820;4.330;2023-04-20T05:18:53;7.50;;;3.75;;
35522;SDS011;61478;50.820;4.330;2023-04-20T05:21:19;24.60;;;10.60;;
35522;SDS011;61478;50.820;4.330;2023-04-20T05:23:45;15.85;;;4.20;;
35522;SDS011;61478;50.820;4.330;2023-04-20T05:26:11;13.73;;;4.43;;
35522;SDS011;61478;50.820;4.330;2023-04-20T05:28:37;38.03;;;6.00;;
35522;SDS011;61478;50.820;4.330;2023-04-20T05:31:03;14.45;;;4.70;;
35522;SDS011;61478;50.820;4.330;2023-04-20T05:33:31;12.38;;;4.00;;
35522;SDS011;61478;50.820;4.330;2023-04-20T05:35:57;14.70;;;4.40;;
35522;SDS011;61478;50.820;4.330;2023-04-20T05:38:23;21.85;;;4.70;;
35522;SDS011;61478;50.820;4.330;2023-04-20T05:40:50;11.38;;;4.78;;
35522;SDS011;61478;50.820;4.330;2023-04-20T05:43:16;12.48;;;3.75;;
35522;SDS011;61478;50.820;4.330;2023-04-20T05:45:43;11.40;;;4.38;;
35522;SDS011;61478;50.820;4.330;2023-04-20T05:48:10;14.27;;;4.20;;
35522;SDS011;61478;50.820;4.330;2023-04-20T05:50:36;25.52;;;4.57;;
35522;SDS011;61478;50.820;4.330;2023-04-20T05:53:02;18.80;;;4.65;;
35522;SDS011;61478;50.820;4.330;2023-04-20T05:55:28;14.50;;;3.97;;
35522;SDS011;61478;50.820;4.330;2023-04-20T05:57:54;13.27;;;4.20;;
35522;SDS011;61478;50.820;4.330;2023-04-20T06:00:21;13.00;;;4.88;;
35522;SDS011;61478;50.820;4.330;2023-04-20T06:02:47;7.68;;;3.88;;
35522;SDS011;61478;50.820;4.330;2023-04-20T06:05:13;11.82;;;4.13;;
35522;SDS011;61478;50.820;4.330;2023-04-20T06:07:39;16.10;;;4.22;;
35522;SDS011;61478;50.820;4.330;2023-04-20T06:10:05;7.25;;;4.10;;
35522;SDS011;61478;50.820;4.330;2023-04-20T06:12:32;8.55;;;3.92;;
35522;SDS011;61478;50.820;4.330;2023-04-20T06:14:58;13.63;;;4.70;;
35522;SDS011;61478;50.820;4.330;2023-04-20T06:17:25;11.00;;;4.22;;
35522;SDS011;61478;50.820;4.330;2023-04-20T06:19:51;13.93;;;4.88;;
35522;SDS011;61478;50.820;4.330;2023-04-20T06:22:17;8.82;;;4.57;;
35522;SDS011;61478;50.820;4.330;2023-04-20T06:24:43;18.90;;;5.35;;
35522;SDS011;61478;50.820;4.330;2023-04-20T06:27:09;13.60;;;5.10;;
35522;SDS011;61478;50.820;4.330;2023-04-20T06:29:35;8.90;;;4.55;;
35522;SDS011;61478;50.820;4.330;2023-04-20T06:32:02;10.18;;;5.05;;
35522;SDS011;61478;50.820;4.330;2023-04-20T06:34:28;25.40;;;5.03;;
35522;SDS011;61478;50.820;4.330;2023-04-20T06:36:53;14.27;;;4.78;;
35522;SDS011;61478;50.820;4.330;2023-04-20T06:39:19;16.23;;;5.82;;
35522;SDS011;61478;50.820;4.330;2023-04-20T06:41:45;13.10;;;5.10;;
35522;SDS011;61478;50.820;4.330;2023-04-20T06:44:11;13.00;;;5.07;;
35522;SDS011;61478;50.820;4.330;2023-04-20T06:46:37;16.55;;;4.65;;
35522;SDS011;61478;50.820;4.330;2023-04-20T06:49:03;11.88;;;5.35;;
35522;SDS011;61478;50.820;4.330;2023-04-20T06:51:30;15.05;;;5.03;;
35522;SDS011;61478;50.820;4.330;2023-04-20T06:53:56;16.75;;;5.05;;
35522;SDS011;61478;50.820;4.330;2023-04-20T06:56:22;14.20;;;4.45;;
35522;SDS011;61478;50.820;4.330;2023-04-20T06:58:48;17.33;;;6.05;;
35522;SDS011;61478;50.820;4.330;2023-04-20T07:01:14;13.93;;;5.60;;
35522;SDS011;61478;50.820;4.330;2023-04-20T07:03:40;11.00;;;5.28;;
35522;SDS011;61478;50.820;4.330;2023-04-20T07:06:06;14.43;;;4.63;;
35522;SDS011;61478;50.820;4.330;2023-04-20T07:08:34;10.52;;;5.03;;
35522;SDS011;61478;50.820;4.330;2023-04-20T07:11:00;13.00;;;5.30;;
35522;SDS011;61478;50.820;4.330;2023-04-20T07:13:26;11.32;;;5.00;;
35522;SDS011;61478;50.820;4.330;2023-04-20T07:15:54;13.10;;;5.28;;
35522;SDS011;61478;50.820;4.330;2023-04-20T07:18:20;13.30;;;5.68;;
35522;SDS011;61478;50.820;4.330;2023-04-20T07:20:46;10.02;;;5.32;;
35522;SDS011;61478;50.820;4.330;2023-04-20T07:23:12;12.93;;;5.25;;
35522;SDS011;61478;50.820;4.330;2023-04-20T07:25:38;14.65;;;5.82;;
35522;SDS011;61478;50.820;4.330;2023-04-20T07:28:04;11.45;;;5.32;;
35522;SDS011;61478;50.820;4.330;2023-04-20T07:30:30;14.35;;;5.40;;
35522;SDS011;61478;50.820;4.330;2023-04-20T07:32:56;8.50;;;5.03;;
35522;SDS011;61478;50.820;4.330;2023-04-20T07:35:22;16.13;;;5.80;;
35522;SDS011;61478;50.820;4.330;2023-04-20T07:37:48;14.68;;;5.55;;
35522;SDS011;61478;50.820;4.330;2023-04-20T07:40:14;31.73;;;7.00;;
35522;SDS011;61478;50.820;4.330;2023-04-20T07:42:41;12.05;;;5.93;;
35522;SDS011;61478;50.820;4.330;2023-04-20T07:45:09;12.85;;;5.28;;
35522;SDS011;61478;50.820;4.330;2023-04-20T07:47:36;12.13;;;5.47;;
35522;SDS011;61478;50.820;4.330;2023-04-20T07:50:03;11.65;;;5.60;;
35522;SDS011;61478;50.820;4.330;2023-04-20T07:52:30;11.52;;;6.00;;
35522;SDS011;61478;50.820;4.330;2023-04-20T07:54:56;11.50;;;5.70;;
35522;SDS011;61478;50.820;4.330;2023-04-20T07:57:23;8.57;;;6.15;;
35522;SDS011;61478;50.820;4.330;2023-04-20T07:59:50;12.15;;;5.47;;
35522;SDS011;61478;50.820;4.330;2023-04-20T08:02:16;16.60;;;6.07;;
35522;SDS011;61478;50.820;4.330;2023-04-20T08:04:43;12.80;;;5.50;;
35522;SDS011;61478;50.820;4.330;2023-04-20T08:07:11;8.30;;;5.55;;
35522;SDS011;61478;50.820;4.330;2023-04-20T08:09:38;14.98;;;5.45;;
35522;SDS011;61478;50.820;4.330;2023-04-20T08:12:04;16.95;;;5.95;;
35522;SDS011;61478;50.820;4.330;2023-04-20T08:14:30;12.27;;;5.53;;
35522;SDS011;61478;50.820;4.330;2023-04-20T08:16:57;20.00;;;6.30;;
35522;SDS011;61478;50.820;4.330;2023-04-20T08:19:24;8.23;;;5.68;;
35522;SDS011;61478;50.820;4.330;2023-04-20T08:21:50;18.45;;;7.13;;
35522;SDS011;61478;50.820;4.330;2023-04-20T08:24:18;15.27;;;6.55;;
35522;SDS011;61478;50.820;4.330;2023-04-20T08:26:44;13.98;;;6.35;;
35522;SDS011;61478;50.820;4.330;2023-04-20T08:29:10;15.35;;;6.07;;
35522;SDS011;61478;50.820;4.330;2023-04-20T08:31:36;16.27;;;6.65;;
35522;SDS011;61478;50.820;4.330;2023-04-20T08:34:02;17.70;;;6.05;;
35522;SDS011;61478;50.820;4.330;2023-04-20T08:36:28;14.45;;;5.30;;
35522;SDS011;61478;50.820;4.330;2023-04-20T08:38:56;15.23;;;5.70;;
35522;SDS011;61478;50.820;4.330;2023-04-20T08:41:30;7.95;;;5.20;;
35522;SDS011;61478;50.820;4.330;2023-04-20T08:43:56;11.90;;;5.20;;
35522;SDS011;61478;50.820;4.330;2023-04-20T08:46:22;12.18;;;6.18;;
35522;SDS011;61478;50.820;4.330;2023-04-20T08:48:49;12.10;;;5.45;;
35522;SDS011;61478;50.820;4.330;2023-04-20T08:51:19;12.93;;;5.60;;
35522;SDS011;61478;50.820;4.330;2023-04-20T08:53:46;19.73;;;5.88;;
35522;SDS011;61478;50.820;4.330;2023-04-20T08:56:17;10.43;;;5.50;;
35522;SDS011;61478;50.820;4.330;2023-04-20T08:58:43;11.65;;;6.28;;
35522;SDS011;61478;50.820;4.330;2023-04-20T09:01:10;17.08;;;6.63;;
35522;SDS011;61478;50.820;4.330;2023-04-20T09:03:37;9.43;;;5.40;;
35522;SDS011;61478;50.820;4.330;2023-04-20T09:06:05;21.98;;;6.55;;
35522;SDS011;61478;50.820;4.330;2023-04-20T09:08:39;12.55;;;5.53;;
35522;SDS011;61478;50.820;4.330;2023-04-20T09:11:06;17.38;;;6.45;;
35522;SDS011;61478;50.820;4.330;2023-04-20T09:14:00;16.17;;;5.32;;
35522;SDS011;61478;50.820;4.330;2023-04-20T09:16:29;46.45;;;8.32;;
35522;SDS011;61478;50.820;4.330;2023-04-20T09:18:55;18.33;;;6.82;;
35522;SDS011;61478;50.820;4.330;2023-04-20T09:21:22;17.27;;;5.93;;
35522;SDS011;61478;50.820;4.330;2023-04-20T09:23:57;14.80;;;5.05;;
35522;SDS011;61478;50.820;4.330;2023-04-20T09:26:24;15.00;;;6.07;;
35522;SDS011;61478;50.820;4.330;2023-04-20T09:28:50;11.90;;;5.40;;
35522;SDS011;61478;50.820;4.330;2023-04-20T09:31:20;12.63;;;6.60;;
35522;SDS011;61478;50.820;4.330;2023-04-20T09:33:58;10.95;;;6.18;;
35522;SDS011;61478;50.820;4.330;2023-04-20T09:36:44;16.98;;;9.48;;
35522;SDS011;61478;50.820;4.330;2023-04-20T09:39:12;11.05;;;6.18;;
35522;SDS011;61478;50.820;4.330;2023-04-20T09:41:43;5.95;;;5.35;;
35522;SDS011;61478;50.820;4.330;2023-04-20T09:44:10;20.20;;;7.43;;
35522;SDS011;61478;50.820;4.330;2023-04-20T09:46:38;12.32;;;6.22;;
35522;SDS011;61478;50.820;4.330;2023-04-20T09:49:06;14.13;;;6.68;;
35522;SDS011;61478;50.820;4.330;2023-04-20T09:51:35;18.02;;;7.45;;
35522;SDS011;61478;50.820;4.330;2023-04-20T09:54:03;12.73;;;6.43;;
35522;SDS011;61478;50.820;4.330;2023-04-20T09:56:30;13.57;;;6.80;;
35522;SDS011;61478;50.820;4.330;2023-04-20T09:58:58;11.95;;;7.07;;
35522;SDS011;61478;50.820;4.330;2023-04-20T10:01:25;11.90;;;6.30;;
35522;SDS011;61478;50.820;4.330;2023-04-20T10:03:54;13.32;;;6.00;;
35522;SDS011;61478;50.820;4.330;2023-04-20T10:06:20;15.40;;;7.07;;
35522;SDS011;61478;50.820;4.330;2023-04-20T10:08:48;12.48;;;6.38;;
35522;SDS011;61478;50.820;4.330;2023-04-20T10:11:26;11.82;;;6.82;;
35522;SDS011;61478;50.820;4.330;2023-04-20T10:14:18;14.52;;;6.13;;
35522;SDS011;61478;50.820;4.330;2023-04-20T10:16:59;11.77;;;6.18;;
35522;SDS011;61478;50.820;4.330;2023-04-20T10:19:40;13.43;;;6.10;;
35522;SDS011;61478;50.820;4.330;2023-04-20T10:22:08;10.13;;;5.45;;
35522;SDS011;61478;50.820;4.330;2023-04-20T10:24:35;12.75;;;5.82;;
35522;SDS011;61478;50.820;4.330;2023-04-20T10:27:18;11.65;;;5.53;;
35522;SDS011;61478;50.820;4.330;2023-04-20T10:29:45;15.50;;;5.30;;
35522;SDS011;61478;50.820;4.330;2023-04-20T10:32:21;9.77;;;5.18;;
35522;SDS011;61478;50.820;4.330;2023-04-20T10:35:00;8.18;;;4.85;;
35522;SDS011;61478;50.820;4.330;2023-04-20T10:37:31;7.07;;;4.18;;
35522;SDS011;61478;50.820;4.330;2023-04-20T10:39:58;8.32;;;4.90;;
35522;SDS011;61478;50.820;4.330;2023-04-20T10:42:24;9.25;;;4.82;;
35522;SDS011;61478;50.820;4.330;2023-04-20T10:44:53;9.73;;;6.15;;
35522;SDS011;61478;50.820;4.330;2023-04-20T10:47:29;11.10;;;4.90;;
35522;SDS011;61478;50.820;4.330;2023-04-20T10:50:09;8.20;;;5.05;;
35522;SDS011;61478;50.820;4.330;2023-04-20T10:52:40;10.65;;;4.65;;
35522;SDS011;61478;50.820;4.330;2023-04-20T10:55:19;6.60;;;4.35;;
35522;SDS011;61478;50.820;4.330;2023-04-20T10:57:47;9.75;;;4.40;;
35522;SDS011;61478;50.820;4.330;2023-04-20T11:00:20;7.63;;;4.45;;
35522;SDS011;61478;50.820;4.330;2023-04-20T11:02:48;7.93;;;4.63;;
35522;SDS011;61478;50.820;4.330;2023-04-20T11:05:16;10.13;;;5.00;;
35522;SDS011;61478;50.820;4.330;2023-04-20T11:08:01;10.30;;;5.25;;
35522;SDS011;61478;50.820;4.330;2023-04-20T11:10:40;12.48;;;5.22;;
35522;SDS011;61478;50.820;4.330;2023-04-20T11:13:17;20.80;;;5.20;;
35522;SDS011;61478;50.820;4.330;2023-04-20T11:15:44;7.47;;;4.55;;
35522;SDS011;61478;50.820;4.330;2023-04-20T11:18:10;10.70;;;4.72;;
35522;SDS011;61478;50.820;4.330;2023-04-20T11:20:53;8.43;;;5.05;;
35522;SDS011;61478;50.820;4.330;2023-04-20T11:23:20;9.43;;;5.15;;
35522;SDS011;61478;50.820;4.330;2023-04-20T11:25:55;7.47;;;5.57;;
35522;SDS011;61478;50.820;4.330;2023-04-20T11:28:22;15.52;;;5.22;;
35522;SDS011;61478;50.820;4.330;2023-04-20T11:30:50;11.30;;;5.22;;
35522;SDS011;61478;50.820;4.330;2023-04-20T11:33:29;11.20;;;5.10;;
35522;SDS011;61478;50.820;4.330;2023-04-20T11:35:56;11.32;;;5.45;;
35522;SDS011;61478;50.820;4.330;2023-04-20T11:38:26;17.83;;;5.80;;
35522;SDS011;61478;50.820;4.330;2023-04-20T11:40:52;15.15;;;4.78;;
35522;SDS011;61478;50.820;4.330;2023-04-20T11:43:19;10.65;;;5.68;;
35522;SDS011;61478;50.820;4.330;2023-04-20T11:45:45;9.20;;;5.03;;
35522;SDS011;61478;50.820;4.330;2023-04-20T11:48:12;15.23;;;6.05;;
35522;SDS011;61478;50.820;4.330;2023-04-20T11:50:37;11.43;;;5.68;;
35522;SDS011;61478;50.820;4.330;2023-04-20T11:53:05;13.70;;;6.00;;
35522;SDS011;61478;50.820;4.330;2023-04-20T11:55:31;7.53;;;5.07;;
35522;SDS011;61478;50.820;4.330;2023-04-20T11:57:57;9.55;;;5.05;;
35522;SDS011;61478;50.820;4.330;2023-04-20T12:00:23;14.65;;;4.82;;
35522;SDS011;61478;50.820;4.330;2023-04-20T12:02:49;11.10;;;5.07;;
35522;SDS011;61478;50.820;4.330;2023-04-20T12:05:14;10.98;;;5.18;;
35522;SDS011;61478;50.820;4.330;2023-04-20T12:07:40;10.18;;;4.90;;
35522;SDS011;61478;50.820;4.330;2023-04-20T12:10:07;13.90;;;5.00;;
35522;SDS011;61478;50.820;4.330;2023-04-20T12:12:33;16.00;;;5.88;;
35522;SDS011;61478;50.820;4.330;2023-04-20T12:14:59;19.00;;;6.07;;
35522;SDS011;61478;50.820;4.330;2023-04-20T12:17:25;10.10;;;5.85;;
35522;SDS011;61478;50.820;4.330;2023-04-20T12:19:51;8.50;;;5.43;;
35522;SDS011;61478;50.820;4.330;2023-04-20T12:22:17;6.65;;;5.35;;
35522;SDS011;61478;50.820;4.330;2023-04-20T12:24:43;8.95;;;5.28;;
35522;SDS011;61478;50.820;4.330;2023-04-20T12:27:09;11.70;;;5.25;;
35522;SDS011;61478;50.820;4.330;2023-04-20T12:29:35;13.02;;;5.30;;
35522;SDS011;61478;50.820;4.330;2023-04-20T12:32:01;10.35;;;6.18;;
35522;SDS011;61478;50.820;4.330;2023-04-20T12:34:27;6.88;;;5.68;;
35522;SDS011;61478;50.820;4.330;2023-04-20T12:36:53;9.00;;;5.60;;
35522;SDS011;61478;50.820;4.330;2023-04-20T12:39:19;15.32;;;6.43;;
35522;SDS011;61478;50.820;4.330;2023-04-20T12:41:45;9.88;;;5.85;;
35522;SDS011;61478;50.820;4.330;2023-04-20T12:44:11;8.88;;;6.68;;
35522;SDS011;61478;50.820;4.330;2023-04-20T12:46:37;9.85;;;6.35;;
35522;SDS011;61478;50.820;4.330;2023-04-20T12:49:03;7.43;;;5.53;;
35522;SDS011;61478;50.820;4.330;2023-04-20T12:51:29;7.63;;;5.53;;
35522;SDS011;61478;50.820;4.330;2023-04-20T12:53:56;7.40;;;5.47;;
35522;SDS011;61478;50.820;4.330;2023-04-20T12:56:22;7.88;;;5.30;;
35522;SDS011;61478;50.820;4.330;2023-04-20T12:58:48;14.60;;;5.68;;
35522;SDS011;61478;50.820;4.330;2023-04-20T13:01:14;6.97;;;4.85;;
35522;SDS011;61478;50.820;4.330;2023-04-20T13:03:40;10.05;;;5.50;;
35522;SDS011;61478;50.820;4.330;2023-04-20T13:06:06;12.95;;;5.10;;
35522;SDS011;61478;50.820;4.330;2023-04-20T13:08:32;8.85;;;5.07;;
35522;SDS011;61478;50.820;4.330;2023-04-20T13:10:58;9.30;;;5.70;;
35522;SDS011;61478;50.820;4.330;2023-04-20T13:13:24;6.25;;;5.65;;
35522;SDS011;61478;50.820;4.330;2023-04-20T13:15:52;8.57;;;5.80;;
35522;SDS011;61478;50.820;4.330;2023-04-20T13:18:18;8.02;;;5.63;;
35522;SDS011;61478;50.820;4.330;2023-04-20T13:20:45;11.25;;;6.10;;
35522;SDS011;61478;50.820;4.330;2023-04-20T13:23:11;12.07;;;5.35;;
35522;SDS011;61478;50.820;4.330;2023-04-20T13:25:37;14.07;;;5.88;;
35522;SDS011;61478;50.820;4.330;2023-04-20T13:28:03;29.60;;;8.95;;
35522;SDS011;61478;50.820;4.330;2023-04-20T13:30:30;9.95;;;7.25;;
35522;SDS011;61478;50.820;4.330;2023-04-20T13:32:56;12.35;;;8.55;;
35522;SDS011;61478;50.820;4.330;2023-04-20T13:35:22;15.77;;;9.77;;
35522;SDS011;61478;50.820;4.330;2023-04-20T13:37:48;11.73;;;8.50;;
35522;SDS011;61478;50.820;4.330;2023-04-20T13:40:14;11.13;;;9.98;;
35522;SDS011;61478;50.820;4.330;2023-04-20T13:42:40;12.75;;;9.48;;
35522;SDS011;61478;50.820;4.330;2023-04-20T13:45:10;11.38;;;8.50;;
35522;SDS011;61478;50.820;4.330;2023-04-20T13:47:37;11.32;;;9.18;;
35522;SDS011;61478;50.820;4.330;2023-04-20T13:50:04;8.98;;;7.90;;
35522;SDS011;61478;50.820;4.330;2023-04-20T13:52:31;9.35;;;8.55;;
35522;SDS011;61478;50.820;4.330;2023-04-20T13:54:56;9.73;;;8.85;;
35522;SDS011;61478;50.820;4.330;2023-04-20T13:57:23;10.68;;;9.52;;
35522;SDS011;61478;50.820;4.330;2023-04-20T13:59:49;8.73;;;7.63;;
35522;SDS011;61478;50.820;4.330;2023-04-20T14:02:15;10.60;;;9.68;;
35522;SDS011;61478;50.820;4.330;2023-04-20T14:04:41;12.07;;;10.80;;
35522;SDS011;61478;50.820;4.330;2023-04-20T14:07:07;13.07;;;11.70;;
35522;SDS011;61478;50.820;4.330;2023-04-20T14:09:33;12.48;;;10.57;;
35522;SDS011;61478;50.820;4.330;2023-04-20T14:11:59;12.13;;;10.93;;
35522;SDS011;61478;50.820;4.330;2023-04-20T14:14:26;11.00;;;9.93;;
35522;SDS011;61478;50.820;4.330;2023-04-20T14:16:52;11.27;;;10.13;;
35522;SDS011;61478;50.820;4.330;2023-04-20T14:19:18;12.00;;;10.75;;
35522;SDS011;61478;50.820;4.330;2023-04-20T14:21:43;10.23;;;9.23;;
35522;SDS011;61478;50.820;4.330;2023-04-20T14:24:11;11.95;;;10.35;;
35522;SDS011;61478;50.820;4.330;2023-04-20T14:26:38;10.90;;;9.90;;
35522;SDS011;61478;50.820;4.330;2023-04-20T14:29:05;11.15;;;9.98;;
35522;SDS011;61478;50.820;4.330;2023-04-20T14:31:31;11.73;;;9.75;;
35522;SDS011;61478;50.820;4.330;2023-04-20T14:33:58;10.23;;;7.93;;
35522;SDS011;61478;50.820;4.330;2023-04-20T14:36:24;9.95;;;9.02;;
35522;SDS011;61478;50.820;4.330;2023-04-20T14:38:51;11.10;;;9.38;;